Time;durP1;ratioP1;P1;durP2;ratioP2;P2;SDS_P1;SDS_P2;PMS_P1;PMS_P2;Temp;Humidity;BMP_temperature;BMP_pressure;BME280_temperature;BME280_humidity;BME280_pressure;Samples;Min_cycle;Max_cycle;Signal;HPM_P1;HPM_P2
2022/06/01 00:00:10;;;;;;;10.30;7.88;;;11.00;99.90;;;;;;5032408;28;20040;-72
2022/06/01 00:02:37;;;;;;;11.35;8.63;;;11.00;99.90;;;;;;5031574;28;20037;-73
2022/06/01 00:05:04;;;;;;;10.68;7.75;;;11.00;99.90;;;;;;5031778;28;20029;-73
2022/06/01 00:07:30;;;;;;;9.77;7.43;;;11.00;99.90;;;;;;5031514;28;20041;-73
2022/06/01 00:09:56;;;;;;;10.55;7.70;;;11.00;99.90;;;;;;5031273;28;20049;-73
2022/06/01 00:12:22;;;;;;;11.20;8.35;;;11.00;99.90;;;;;;5031291;28;20034;-73
2022/06/01 00:14:47;;;;;;;13.10;8.40;;;11.00;99.90;;;;;;5030555;28;20042;-73
2022/06/01 00:17:14;;;;;;;12.90;8.35;;;10.90;99.90;;;;;;5046787;28;20047;-73
2022/06/01 00:19:39;;;;;;;11.10;8.07;;;10.90;99.90;;;;;;5022291;28;20045;-73
2022/06/01 00:22:17;;;;;;;11.15;8.30;;;10.90;99.90;;;;;;5031411;28;20079;-73
2022/06/01 00:24:44;;;;;;;11.93;8.73;;;11.00;99.90;;;;;;5014098;28;20449;-73
2022/06/01 00:27:11;;;;;;;11.57;8.38;;;10.90;99.90;;;;;;5046892;28;20477;-73
2022/06/01 00:29:37;;;;;;;10.25;8.27;;;10.90;99.90;;;;;;5015584;28;20033;-73
2022/06/01 00:32:04;;;;;;;9.77;7.80;;;10.90;99.90;;;;;;5014881;28;20048;-73
2022/06/01 00:34:30;;;;;;;10.48;7.28;;;11.00;99.90;;;;;;5014576;28;20050;-73
2022/06/01 00:36:56;;;;;;;10.35;7.25;;;11.00;99.90;;;;;;5015659;28;20168;-73
2022/06/01 00:39:21;;;;;;;9.18;6.85;;;11.10;99.90;;;;;;5031697;28;20093;-73
2022/06/01 00:41:47;;;;;;;9.65;7.43;;;11.10;99.90;;;;;;5031217;28;20136;-73
2022/06/01 00:44:13;;;;;;;9.90;7.50;;;11.10;99.90;;;;;;5031152;28;20036;-73
2022/06/01 00:46:39;;;;;;;9.43;7.65;;;11.20;99.90;;;;;;5014261;28;20490;-73
2022/06/01 00:49:20;;;;;;;11.02;8.30;;;11.10;99.90;;;;;;5030015;28;20133;-73
2022/06/01 00:51:47;;;;;;;11.35;8.80;;;11.00;99.90;;;;;;5032143;28;20362;-73
2022/06/01 00:54:14;;;;;;;9.80;8.02;;;11.00;99.90;;;;;;5015615;28;20045;-73
2022/06/01 00:56:47;;;;;;;10.25;7.35;;;11.00;99.90;;;;;;5031141;28;20497;-73
2022/06/01 00:59:19;;;;;;;10.77;8.07;;;11.10;99.90;;;;;;5031022;28;20506;-73
2022/06/01 01:01:46;;;;;;;11.38;8.70;;;11.00;99.90;;;;;;5029828;28;20045;-73
2022/06/01 01:04:12;;;;;;;11.18;8.75;;;11.10;99.90;;;;;;5014374;28;20120;-73
2022/06/01 01:06:40;;;;;;;12.25;8.63;;;11.00;99.90;;;;;;5031257;28;20034;-73
2022/06/01 01:09:07;;;;;;;13.35;9.80;;;11.00;99.90;;;;;;5015377;28;20482;-73
2022/06/01 01:12:07;;;;;;;11.50;9.55;;;11.00;99.90;;;;;;5030677;28;20049;-72
2022/06/01 01:14:38;;;;;;;11.48;9.65;;;11.00;99.90;;;;;;4992998;28;20053;-73
2022/06/01 01:17:05;;;;;;;10.60;8.65;;;10.90;99.90;;;;;;5031915;28;20371;-73
2022/06/01 01:19:37;;;;;;;11.57;7.65;;;11.00;99.90;;;;;;5030500;28;20049;-73
2022/06/01 01:22:27;;;;;;;12.57;9.32;;;11.00;99.90;;;;;;5030112;28;20508;-73
2022/06/01 01:25:23;;;;;;;11.68;8.52;;;11.00;99.90;;;;;;5030156;28;20076;-73
2022/06/01 01:27:52;;;;;;;9.98;8.35;;;11.10;99.90;;;;;;5014888;28;20041;-73
2022/06/01 01:30:36;;;;;;;11.25;8.80;;;11.00;99.90;;;;;;5031630;28;20401;-72
2022/06/01 01:33:24;;;;;;;10.55;8.60;;;10.90;99.90;;;;;;5031078;28;20435;-72
2022/06/01 01:35:56;;;;;;;14.05;8.75;;;11.10;99.90;;;;;;5012930;28;20041;-72
2022/06/01 01:38:37;;;;;;;11.82;9.13;;;11.10;99.90;;;;;;5030457;28;21268;-72
2022/06/01 01:41:10;;;;;;;11.65;8.85;;;11.00;99.90;;;;;;5033357;28;20053;-72
2022/06/01 01:43:55;;;;;;;11.85;8.48;;;11.00;99.90;;;;;;5051386;28;20067;-72
2022/06/01 01:46:21;;;;;;;11.32;9.10;;;11.10;99.90;;;;;;5042771;28;20044;-72
2022/06/01 01:48:46;;;;;;;10.95;8.05;;;11.10;99.90;;;;;;5034761;28;20038;-72
2022/06/01 01:51:12;;;;;;;12.18;8.90;;;11.10;99.90;;;;;;5033880;28;20122;-73
2022/06/01 01:53:38;;;;;;;11.00;8.45;;;11.10;99.90;;;;;;5034674;28;20124;-73
2022/06/01 01:56:22;;;;;;;10.63;8.73;;;11.20;99.90;;;;;;5033852;28;20052;-72
2022/06/01 01:59:16;;;;;;;11.27;8.80;;;11.20;99.90;;;;;;5017463;28;20052;-73
2022/06/01 02:01:50;;;;;;;12.70;9.75;;;11.20;99.90;;;;;;5034525;28;20061;-73
2022/06/01 02:07:22;;;;;;;12.02;8.85;;;11.10;99.90;;;;;;5033814;28;20116;-73
2022/06/01 02:12:41;;;;;;;13.82;9.20;;;11.10;99.90;;;;;;5050217;28;20497;-73
2022/06/01 02:15:08;;;;;;;13.23;10.77;;;11.00;99.90;;;;;;5032665;28;20041;-73
2022/06/01 02:17:39;;;;;;;11.10;9.45;;;11.00;99.90;;;;;;5048708;28;20553;-73
2022/06/01 02:20:18;;;;;;;10.00;8.00;;;11.10;99.90;;;;;;5032424;28;20073;-73
2022/06/01 02:22:43;;;;;;;11.57;8.88;;;11.10;99.90;;;;;;5017262;28;20445;-74
2022/06/01 02:25:12;;;;;;;11.77;8.75;;;11.20;99.90;;;;;;5033212;28;20039;-73
2022/06/01 02:27:39;;;;;;;10.60;9.15;;;11.20;99.90;;;;;;5017486;28;20073;-73
2022/06/01 02:30:16;;;;;;;12.00;9.80;;;11.20;99.90;;;;;;5034171;28;20048;-73
2022/06/01 02:32:43;;;;;;;13.43;10.25;;;11.20;99.90;;;;;;5032654;28;20168;-73
2022/06/01 02:35:12;;;;;;;12.13;9.07;;;11.10;99.90;;;;;;5016654;28;20150;-73
2022/06/01 02:37:41;;;;;;;12.52;9.25;;;11.10;99.90;;;;;;5033559;28;20107;-73
2022/06/01 02:40:11;;;;;;;11.10;9.02;;;11.10;99.90;;;;;;5050201;28;20054;-73
2022/06/01 02:42:44;;;;;;;12.38;9.68;;;11.00;99.90;;;;;;5049571;28;20041;-73
2022/06/01 02:45:11;;;;;;;11.48;9.48;;;11.00;99.90;;;;;;5033087;28;20366;-73
2022/06/01 02:47:43;;;;;;;13.07;9.55;;;11.00;99.90;;;;;;5016564;28;20076;-73
2022/06/01 02:50:10;;;;;;;;;;;11.00;99.90;;;;;;5032496;28;20127;-73
2022/06/01 02:52:36;;;;;;;13.70;10.23;;;11.00;99.90;;;;;;5033563;28;19917;-73
2022/06/01 02:55:05;;;;;;;11.13;9.18;;;11.00;99.90;;;;;;5030319;28;20057;-72
2022/06/01 02:57:32;;;;;;;11.65;9.50;;;11.00;99.90;;;;;;5012208;28;20037;-73
2022/06/01 02:59:58;;;;;;;13.48;10.15;;;11.00;99.90;;;;;;5028237;28;20045;-72
2022/06/01 03:02:23;;;;;;;11.27;9.65;;;10.90;99.90;;;;;;5030680;28;20031;-72
2022/06/01 03:04:49;;;;;;;13.88;10.35;;;10.90;99.90;;;;;;5032292;28;20041;-73
2022/06/01 03:07:14;;;;;;;12.05;9.88;;;10.90;99.90;;;;;;5032629;28;20044;-73
2022/06/01 03:09:40;;;;;;;12.90;9.02;;;10.80;99.90;;;;;;5016722;28;20033;-73
2022/06/01 03:12:06;;;;;;;11.45;9.48;;;10.80;99.90;;;;;;5023642;28;20042;-73
2022/06/01 03:14:33;;;;;;;12.30;9.80;;;10.80;99.90;;;;;;5033443;28;20471;-73
2022/06/01 03:16:59;;;;;;;11.93;10.55;;;10.90;99.90;;;;;;5031958;28;20092;-73
2022/06/01 03:19:25;;;;;;;14.27;10.68;;;10.90;99.90;;;;;;5016308;28;20478;-73
2022/06/01 03:21:51;;;;;;;13.48;11.13;;;10.80;99.90;;;;;;5032081;28;20037;-73
2022/06/01 03:24:17;;;;;;;12.68;10.80;;;10.80;99.90;;;;;;5033261;28;20048;-73
2022/06/01 03:26:43;;;;;;;13.55;11.10;;;10.70;99.90;;;;;;5030922;28;20059;-73
2022/06/01 03:29:09;;;;;;;13.15;11.00;;;10.70;99.90;;;;;;5032385;28;20053;-72
2022/06/01 03:31:34;;;;;;;13.70;11.00;;;10.70;99.90;;;;;;5032094;28;20048;-72
2022/06/01 03:34:00;;;;;;;15.38;11.93;;;10.70;99.90;;;;;;5032972;28;20091;-73
2022/06/01 03:36:26;;;;;;;15.93;14.20;;;10.70;99.90;;;;;;5028501;28;20045;-73
2022/06/01 03:38:52;;;;;;;14.13;12.40;;;10.70;99.90;;;;;;5031637;28;20504;-72
2022/06/01 03:41:18;;;;;;;12.82;10.85;;;10.80;99.90;;;;;;5032591;28;20068;-73
2022/06/01 03:46:31;;;;;;;13.48;10.98;;;10.80;99.90;;;;;;5031233;28;20038;-73
2022/06/01 03:48:57;;;;;;;12.90;11.10;;;10.80;99.90;;;;;;5049053;28;20498;-73
2022/06/01 03:51:26;;;;;;;13.32;11.80;;;10.80;99.90;;;;;;5014118;28;20043;-73
2022/06/01 03:53:51;;;;;;;13.32;11.10;;;10.90;99.90;;;;;;5015964;28;20482;-72
2022/06/01 03:56:17;;;;;;;13.10;11.70;;;10.80;99.90;;;;;;5015380;28;20044;-72
2022/06/01 03:58:42;;;;;;;12.82;11.32;;;10.80;99.90;;;;;;5032438;28;20048;-72
2022/06/01 04:01:08;;;;;;;13.73;12.05;;;10.90;99.90;;;;;;5014150;28;20045;-72
2022/06/01 04:03:34;;;;;;;13.82;11.82;;;10.80;99.90;;;;;;5031742;28;20041;-73
2022/06/01 04:05:59;;;;;;;14.00;12.45;;;10.80;99.90;;;;;;5032323;28;20116;-72
2022/06/01 04:08:25;;;;;;;13.90;12.15;;;10.90;99.90;;;;;;5031139;28;20038;-72
2022/06/01 04:10:51;;;;;;;14.93;12.93;;;10.80;99.90;;;;;;5014939;28;20038;-72
2022/06/01 04:13:16;;;;;;;14.65;13.10;;;10.80;99.90;;;;;;5015736;28;20045;-72
2022/06/01 04:15:42;;;;;;;14.68;13.02;;;10.80;99.90;;;;;;5031607;28;20474;-73
2022/06/01 04:18:08;;;;;;;14.27;12.73;;;10.80;99.90;;;;;;5013874;28;20096;-73
2022/06/01 04:20:34;;;;;;;16.65;14.43;;;10.80;99.90;;;;;;5030923;28;20050;-73
2022/06/01 04:23:01;;;;;;;15.95;14.15;;;10.80;99.90;;;;;;5031187;28;20037;-73
2022/06/01 04:25:28;;;;;;;15.20;13.68;;;10.90;99.90;;;;;;5048670;28;20045;-73
2022/06/01 04:27:54;;;;;;;15.45;13.40;;;10.80;99.90;;;;;;5031096;28;20084;-73
2022/06/01 04:30:21;;;;;;;13.88;12.38;;;10.90;99.90;;;;;;5031956;28;20441;-74
2022/06/01 04:32:49;;;;;;;15.32;12.65;;;10.90;99.90;;;;;;5031230;28;20497;-73
2022/06/01 04:35:15;;;;;;;14.60;12.32;;;11.10;99.90;;;;;;5014056;28;20041;-73
2022/06/01 04:37:41;;;;;;;14.88;13.38;;;11.10;99.90;;;;;;5032157;28;20046;-73
2022/06/01 04:40:08;;;;;;;16.20;13.95;;;11.10;99.90;;;;;;5030099;28;20060;-72
2022/06/01 04:42:34;;;;;;;16.90;15.10;;;11.10;99.90;;;;;;5046506;28;20045;-72
2022/06/01 04:45:00;;;;;;;17.27;15.45;;;11.10;99.90;;;;;;5031352;28;20040;-73
2022/06/01 04:47:25;;;;;;;16.67;14.98;;;11.10;99.90;;;;;;5031872;28;20037;-73
2022/06/01 04:49:51;;;;;;;16.10;14.23;;;11.10;99.90;;;;;;5030889;28;20121;-73
2022/06/01 04:52:17;;;;;;;17.92;14.32;;;11.10;99.90;;;;;;5014963;28;20564;-73
2022/06/01 04:54:42;;;;;;;19.33;14.57;;;11.10;99.90;;;;;;5014410;28;20049;-73
2022/06/01 04:57:08;;;;;;;16.65;14.95;;;11.10;99.90;;;;;;5044300;28;20053;-72
2022/06/01 04:59:34;;;;;;;17.15;15.27;;;11.20;99.90;;;;;;5034945;28;20051;-72
2022/06/01 05:02:00;;;;;;;16.75;14.95;;;11.30;99.90;;;;;;5014661;28;20060;-72
2022/06/01 05:04:28;;;;;;;17.27;15.00;;;11.40;99.90;;;;;;5030470;28;20069;-73
2022/06/01 05:06:55;;;;;;;16.48;14.73;;;11.40;99.90;;;;;;5046463;28;20044;-73
2022/06/01 05:09:20;;;;;;;17.17;15.40;;;11.40;99.90;;;;;;5031797;28;20059;-73
2022/06/01 05:11:46;;;;;;;17.35;15.55;;;11.40;99.90;;;;;;5029517;28;20034;-73
2022/06/01 05:14:12;;;;;;;18.15;16.10;;;11.50;99.90;;;;;;5032083;28;20080;-73
2022/06/01 05:16:37;;;;;;;18.50;16.20;;;11.50;99.90;;;;;;5052232;28;20084;-73
2022/06/01 05:19:03;;;;;;;17.35;15.48;;;11.50;99.90;;;;;;5018667;28;20041;-72
2022/06/01 05:21:29;;;;;;;18.80;16.90;;;11.50;99.90;;;;;;5049598;28;20052;-72
2022/06/01 05:23:55;;;;;;;18.10;16.20;;;11.50;99.90;;;;;;5033333;28;20049;-72
2022/06/01 05:26:20;;;;;;;17.73;15.82;;;11.50;99.90;;;;;;5035747;28;20130;-72
2022/06/01 05:28:46;;;;;;;17.00;15.20;;;11.50;99.90;;;;;;5018142;28;20167;-72
2022/06/01 05:31:14;;;;;;;17.33;15.30;;;11.60;99.90;;;;;;5034964;28;20037;-72
2022/06/01 05:33:43;;;;;;;16.92;15.20;;;11.50;99.90;;;;;;5034071;28;20045;-71
2022/06/01 05:36:10;;;;;;;17.63;14.73;;;11.60;99.90;;;;;;5032941;28;20049;-72
2022/06/01 05:38:35;;;;;;;18.00;15.82;;;11.60;99.90;;;;;;5034922;28;20037;-72
2022/06/01 05:41:02;;;;;;;16.98;14.73;;;11.60;99.90;;;;;;5033624;28;20076;-72
2022/06/01 05:43:28;;;;;;;16.52;14.82;;;11.60;99.90;;;;;;5037672;28;20045;-72
2022/06/01 05:45:53;;;;;;;16.35;14.63;;;11.70;99.90;;;;;;5039242;28;20571;-72
2022/06/01 05:48:21;;;;;;;16.65;14.93;;;11.70;99.90;;;;;;5034874;28;20041;-73
2022/06/01 05:50:47;;;;;;;18.25;15.68;;;11.60;99.90;;;;;;5017330;28;20042;-72
2022/06/01 05:53:13;;;;;;;17.02;15.23;;;11.60;99.90;;;;;;5034738;28;20393;-72
2022/06/01 05:55:39;;;;;;;18.83;14.50;;;11.70;99.90;;;;;;5032986;28;20033;-73
2022/06/01 05:58:17;;;;;;;18.10;15.52;;;11.60;99.90;;;;;;5016716;28;20040;-72
2022/06/01 06:00:44;;;;;;;17.30;15.30;;;11.70;99.90;;;;;;5035248;28;20045;-72
2022/06/01 06:03:10;;;;;;;16.77;14.75;;;11.70;99.90;;;;;;5033085;28;20116;-72
2022/06/01 06:08:21;;;;;;;16.88;15.02;;;11.80;99.90;;;;;;5034127;28;20037;-72
2022/06/01 06:10:47;;;;;;;18.25;16.30;;;11.80;99.90;;;;;;5047712;28;20068;-72
2022/06/01 06:13:12;;;;;;;19.75;17.73;;;11.80;99.90;;;;;;5017995;28;20076;-72
2022/06/01 06:15:38;;;;;;;19.02;16.45;;;11.80;99.90;;;;;;5032694;28;20136;-72
2022/06/01 06:18:03;;;;;;;16.88;15.10;;;11.70;99.90;;;;;;5033311;28;20464;-72
2022/06/01 06:20:29;;;;;;;16.67;14.88;;;11.80;99.90;;;;;;5026089;28;20037;-72
2022/06/01 06:22:55;;;;;;;17.67;15.82;;;11.90;99.90;;;;;;5016588;28;20128;-72
2022/06/01 06:25:21;;;;;;;18.38;16.42;;;11.90;99.90;;;;;;5020405;28;20042;-72
2022/06/01 06:27:46;;;;;;;19.33;17.27;;;11.80;99.90;;;;;;5036441;28;20041;-73
2022/06/01 06:30:14;;;;;;;17.95;15.60;;;11.90;99.90;;;;;;5033086;28;20037;-73
2022/06/01 06:32:40;;;;;;;16.92;15.00;;;11.90;99.90;;;;;;5014131;28;20041;-73
2022/06/01 06:35:06;;;;;;;18.67;16.67;;;11.90;99.90;;;;;;5016766;28;20574;-73
2022/06/01 06:37:31;;;;;;;18.40;15.40;;;11.90;99.90;;;;;;5033052;28;20048;-73
2022/06/01 06:39:57;;;;;;;16.70;14.45;;;11.90;99.90;;;;;;5047624;28;20513;-72
2022/06/01 06:42:23;;;;;;;16.27;13.90;;;11.90;99.90;;;;;;5031764;28;20041;-72
2022/06/01 06:44:48;;;;;;;15.57;13.80;;;12.00;99.90;;;;;;5032369;28;20030;-72
2022/06/01 06:47:14;;;;;;;16.67;13.02;;;12.00;99.90;;;;;;5033004;28;20036;-72
2022/06/01 06:49:39;;;;;;;14.70;13.00;;;12.10;99.90;;;;;;5032602;28;20465;-72
2022/06/01 06:52:06;;;;;;;16.55;13.82;;;12.10;99.90;;;;;;5032407;28;20064;-72
2022/06/01 06:54:33;;;;;;;13.75;12.15;;;12.20;99.90;;;;;;5032891;28;20095;-72
2022/06/01 06:56:58;;;;;;;13.65;11.57;;;12.20;99.90;;;;;;5015987;28;20456;-72
2022/06/01 06:59:24;;;;;;;13.65;11.55;;;12.20;99.90;;;;;;5027474;28;20048;-72
2022/06/01 07:01:50;;;;;;;13.63;10.80;;;12.40;99.90;;;;;;5015195;28;20072;-72
2022/06/01 07:04:15;;;;;;;12.88;11.15;;;12.40;99.90;;;;;;5048093;28;20087;-75
2022/06/01 07:06:41;;;;;;;13.38;11.18;;;12.50;99.90;;;;;;5016638;28;20066;-72
2022/06/01 07:09:07;;;;;;;14.32;12.75;;;12.60;99.90;;;;;;5015301;28;20037;-72
2022/06/01 07:11:32;;;;;;;16.00;12.52;;;12.60;99.90;;;;;;5048980;28;20399;-72
2022/06/01 07:13:59;;;;;;;14.95;12.25;;;12.50;99.90;;;;;;5031959;28;20053;-72
2022/06/01 07:16:28;;;;;;;13.85;12.20;;;12.60;99.90;;;;;;5032287;28;20044;-72
2022/06/01 07:18:55;;;;;;;16.50;13.52;;;12.70;99.90;;;;;;5044975;28;20505;-72
2022/06/01 07:21:22;;;;;;;15.40;13.25;;;12.80;99.90;;;;;;5045378;28;20076;-72
2022/06/01 07:23:49;;;;;;;16.67;13.57;;;12.80;99.90;;;;;;5030918;28;20041;-72
2022/06/01 07:26:21;;;;;;;17.13;13.43;;;12.80;99.90;;;;;;5048654;28;20079;-72
2022/06/01 07:28:48;;;;;;;16.63;14.48;;;12.80;99.90;;;;;;5031827;28;20033;-72
2022/06/01 07:31:14;;;;;;;16.95;14.50;;;13.00;99.90;;;;;;5032078;28;20052;-73
2022/06/01 07:33:40;;;;;;;16.30;14.32;;;13.10;99.90;;;;;;5031396;28;20462;-73
2022/06/01 07:36:08;;;;;;;17.73;14.57;;;13.20;99.90;;;;;;5031265;28;20037;-72
2022/06/01 07:44:11;;;;;;;16.65;14.85;;;13.00;99.90;;;;;;5031678;28;20049;-73
2022/06/01 07:46:37;;;;;;;16.85;14.82;;;13.00;99.90;;;;;;5031230;28;20037;-73
2022/06/01 07:49:07;;;;;;;15.75;13.98;;;13.00;99.90;;;;;;5045852;28;20489;-73
2022/06/01 07:51:36;;;;;;;17.98;14.63;;;12.90;99.90;;;;;;5027258;28;20049;-73
2022/06/01 07:54:02;;;;;;;15.32;13.15;;;12.90;99.90;;;;;;5024863;28;20045;-73
2022/06/01 07:56:28;;;;;;;15.05;12.48;;;12.90;99.90;;;;;;5031791;28;20137;-73
2022/06/01 07:58:53;;;;;;;15.00;13.10;;;12.90;99.90;;;;;;5045519;28;20089;-72
2022/06/01 08:01:25;;;;;;;15.45;13.85;;;13.00;99.90;;;;;;5014578;28;20033;-73
2022/06/01 08:04:04;;;;;;;15.30;13.70;;;13.10;99.90;;;;;;5028598;28;20433;-74
2022/06/01 08:06:31;;;;;;;16.35;13.80;;;13.00;99.90;;;;;;5013110;28;20041;-72
2022/06/01 08:08:57;;;;;;;17.10;12.65;;;13.00;99.90;;;;;;5030595;28;20073;-72
2022/06/01 08:13:06;;;;;;;15.50;12.65;;;13.00;99.90;;;;;;5013029;28;20045;-73
2022/06/01 08:14:11;;;;;;;15.35;13.20;;;12.90;99.90;;;;;;5026389;28;20083;-73
2022/06/01 08:16:38;;;;;;;15.55;12.07;;;13.00;99.90;;;;;;5031139;28;20037;-72
2022/06/01 08:19:05;;;;;;;13.35;11.32;;;13.10;99.90;;;;;;5027974;28;20041;-72
2022/06/01 08:21:32;;;;;;;14.05;12.02;;;13.00;99.90;;;;;;5024106;28;20084;-71
2022/06/01 08:23:57;;;;;;;13.88;12.00;;;13.00;99.90;;;;;;5030586;28;20033;-71
2022/06/01 08:26:23;;;;;;;16.33;12.00;;;13.00;99.90;;;;;;5032820;28;20048;-72
2022/06/01 08:28:48;;;;;;;12.52;10.43;;;13.10;99.90;;;;;;5022176;28;20067;-72
2022/06/01 08:31:14;;;;;;;13.32;9.48;;;13.00;99.90;;;;;;5030955;28;20049;-72
2022/06/01 08:33:39;;;;;;;12.13;8.57;;;13.10;99.90;;;;;;5032415;28;20037;-72
2022/06/01 08:36:05;;;;;;;11.13;8.48;;;13.10;99.90;;;;;;5015010;28;20041;-72
2022/06/01 08:38:31;;;;;;;9.40;6.47;;;13.00;99.90;;;;;;5031245;28;20038;-73
2022/06/01 08:41:03;;;;;;;10.30;6.38;;;12.90;99.90;;;;;;5031350;28;20084;-73
2022/06/01 08:43:35;;;;;;;8.88;5.75;;;12.70;99.90;;;;;;5031149;28;20480;-73
2022/06/01 08:46:01;;;;;;;;;;;12.80;99.90;;;;;;5031722;28;20126;-72
2022/06/01 08:48:40;;;;;;;6.38;4.05;;;12.80;99.90;;;;;;5030772;28;20331;-72
2022/06/01 08:51:06;;;;;;;6.88;4.10;;;12.60;99.90;;;;;;5046186;28;20160;-72
2022/06/01 08:53:33;;;;;;;6.57;3.70;;;12.50;99.90;;;;;;5032087;28;20132;-72
2022/06/01 08:56:07;;;;;;;7.40;3.60;;;12.60;99.90;;;;;;5049753;28;20049;-73
2022/06/01 08:58:57;;;;;;;6.05;3.28;;;12.60;99.90;;;;;;5033778;28;20444;-72
2022/06/01 09:01:33;;;;;;;5.40;3.10;;;12.80;99.90;;;;;;5029234;28;20052;-72
2022/06/01 09:04:24;;;;;;;5.20;2.83;;;13.00;99.90;;;;;;5039114;28;20494;-72
2022/06/01 09:06:53;;;;;;;5.65;2.88;;;13.10;99.90;;;;;;5004400;28;20033;-73
2022/06/01 09:09:38;;;;;;;6.40;3.58;;;13.30;99.90;;;;;;5029640;28;20056;-73
2022/06/01 09:12:05;;;;;;;6.38;3.92;;;13.60;99.90;;;;;;5016356;28;20060;-72
2022/06/01 09:14:35;;;;;;;6.72;4.30;;;13.70;99.90;;;;;;5035291;28;20038;-72
2022/06/01 09:17:02;;;;;;;7.70;4.57;;;14.00;99.90;;;;;;5034995;28;20577;-73
2022/06/01 09:22:39;;;;;;;8.98;5.20;;;13.90;99.90;;;;;;5032917;28;20037;-72
2022/06/01 09:25:12;;;;;;;8.57;5.05;;;13.90;99.90;;;;;;5035209;28;20045;-72
2022/06/01 09:27:51;;;;;;;7.40;4.30;;;13.80;99.90;;;;;;5017444;28;20056;-72
2022/06/01 09:30:51;;;;;;;7.88;4.90;;;13.70;99.90;;;;;;5026060;28;20405;-73
2022/06/01 09:33:27;;;;;;;9.43;5.53;;;13.70;99.90;;;;;;5014947;28;20084;-73
2022/06/01 09:36:08;;;;;;;7.97;5.13;;;13.50;99.90;;;;;;5018263;28;20045;-73
2022/06/01 09:38:42;;;;;;;8.10;5.03;;;13.40;99.90;;;;;;5017700;28;20052;-73
2022/06/01 09:41:11;;;;;;;7.43;4.40;;;13.40;99.90;;;;;;5031398;28;20054;-73
2022/06/01 09:43:40;;;;;;;6.55;4.30;;;13.50;99.90;;;;;;5046606;28;20045;-73
2022/06/01 09:46:06;;;;;;;8.40;4.78;;;13.50;99.90;;;;;;5016893;28;20474;-73
2022/06/01 09:48:38;;;;;;;7.57;4.15;;;13.60;99.90;;;;;;5029390;28;20053;-73
2022/06/01 09:51:21;;;;;;;7.57;4.90;;;14.00;99.90;;;;;;5031976;28;20116;-73
2022/06/01 09:54:06;;;;;;;8.43;4.60;;;14.00;99.90;;;;;;5033864;28;20037;-73
2022/06/01 09:56:36;;;;;;;7.22;5.03;;;14.40;99.90;;;;;;5032254;28;20501;-73
2022/06/01 10:07:30;;;;;;;8.13;4.35;;;14.90;99.90;;;;;;5025010;28;20179;-73
2022/06/01 10:10:00;;;;;;;6.32;4.45;;;15.10;99.90;;;;;;5017386;28;20042;-73
2022/06/01 10:12:53;;;;;;;7.88;4.93;;;15.10;99.90;;;;;;5034589;28;20506;-73
2022/06/01 10:15:39;;;;;;;6.57;3.97;;;15.40;99.90;;;;;;5033535;28;20521;-72
2022/06/01 10:18:21;;;;;;;6.28;4.15;;;15.60;99.90;;;;;;5034637;28;20136;-73
2022/06/01 10:21:07;;;;;;;6.72;4.10;;;15.80;99.90;;;;;;5033438;28;20453;-73
2022/06/01 10:23:58;;;;;;;7.20;4.20;;;15.90;99.90;;;;;;5017094;28;20397;-73
2022/06/01 10:26:36;;;;;;;7.38;4.10;;;16.00;99.90;;;;;;5013771;28;20065;-73
2022/06/01 10:29:18;;;;;;;6.82;4.15;;;16.00;99.90;;;;;;5012837;28;20390;-73
2022/06/01 10:32:03;;;;;;;6.47;4.45;;;15.70;99.90;;;;;;5028552;28;20079;-73
2022/06/01 10:34:42;;;;;;;7.03;4.95;;;15.70;99.90;;;;;;5050395;28;20057;-73
2022/06/01 10:37:30;;;;;;;8.65;5.40;;;15.40;99.90;;;;;;5050931;28;20402;-73
2022/06/01 10:40:19;;;;;;;8.15;5.53;;;15.30;99.90;;;;;;5017283;28;20088;-73
2022/06/01 10:45:55;;;;;;;11.23;7.03;;;15.10;99.90;;;;;;5034225;28;20414;-74
2022/06/01 10:48:36;;;;;;;12.02;7.97;;;15.00;99.90;;;;;;5024172;28;20029;-74
2022/06/01 10:51:25;;;;;;;9.18;6.32;;;14.90;99.90;;;;;;5030007;28;20033;-74
2022/06/01 10:53:55;;;;;;;8.27;6.00;;;14.60;99.90;;;;;;5035807;28;20759;-74
2022/06/01 10:56:22;;;;;;;9.60;6.50;;;14.50;99.90;;;;;;5032277;28;20355;-74
2022/06/01 10:58:49;;;;;;;8.65;5.75;;;14.50;99.90;;;;;;5016188;28;20512;-74
2022/06/01 11:01:38;;;;;;;7.97;5.30;;;14.90;99.90;;;;;;5023667;28;20129;-73
2022/06/01 11:04:17;;;;;;;7.30;4.53;;;15.10;99.90;;;;;;5032542;28;20041;-75
2022/06/01 11:06:53;;;;;;;6.35;4.20;;;15.30;99.90;;;;;;5033457;28;20037;-74
2022/06/01 11:09:22;;;;;;;7.63;5.65;;;15.40;99.90;;;;;;5033332;28;20527;-75
2022/06/01 11:12:16;;;;;;;7.57;5.15;;;15.20;99.90;;;;;;5032367;28;20045;-74
2022/06/01 11:15:16;;;;;;;9.70;5.80;;;15.30;99.90;;;;;;5033177;28;20041;-74
2022/06/01 11:17:45;;;;;;;4.78;2.42;;;15.00;99.90;;;;;;5025333;28;20072;-74
2022/06/01 11:20:33;;;;;;;4.07;1.77;;;14.80;99.90;;;;;;5032196;28;20094;-73
2022/06/01 11:23:40;;;;;;;3.15;1.30;;;14.40;99.90;;;;;;5016571;28;20413;-74
2022/06/01 11:26:21;;;;;;;1.58;0.75;;;14.00;99.90;;;;;;5016537;28;20044;-74
2022/06/01 11:29:07;;;;;;;1.75;0.70;;;13.70;99.90;;;;;;5033028;28;20088;-74
2022/06/01 11:31:36;;;;;;;3.13;0.88;;;13.40;99.90;;;;;;5033327;28;20409;-74
2022/06/01 11:34:22;;;;;;;0.52;0.52;;;13.40;99.90;;;;;;5019653;28;20038;-74
2022/06/01 11:36:59;;;;;;;1.00;0.60;;;13.20;99.90;;;;;;5029945;28;20152;-74
2022/06/01 11:39:37;;;;;;;2.78;0.73;;;13.10;99.90;;;;;;5032437;28;20053;-74
2022/06/01 11:42:07;;;;;;;2.75;0.77;;;13.10;99.90;;;;;;5032664;28;20053;-74
2022/06/01 11:44:38;;;;;;;1.95;0.80;;;12.90;99.90;;;;;;5016150;28;20083;-75
2022/06/01 11:47:12;;;;;;;1.08;0.60;;;12.90;99.90;;;;;;5033003;28;20397;-75
2022/06/01 11:49:44;;;;;;;0.93;0.80;;;13.00;99.90;;;;;;5014298;28;20124;-75
2022/06/01 11:52:26;;;;;;;1.13;0.90;;;13.10;99.90;;;;;;5015397;28;20080;-75
2022/06/01 11:55:05;;;;;;;1.75;0.90;;;13.10;99.90;;;;;;5015991;28;20069;-75
2022/06/01 11:57:51;;;;;;;1.42;1.00;;;13.20;99.90;;;;;;5022004;28;20099;-74
2022/06/01 12:00:30;;;;;;;0.80;0.80;;;13.40;99.90;;;;;;5049154;28;20498;-75
2022/06/01 12:03:20;;;;;;;1.90;0.82;;;13.60;99.90;;;;;;5032462;28;20041;-75
2022/06/01 12:06:09;;;;;;;1.75;0.90;;;13.90;99.90;;;;;;5032177;28;20044;-76
2022/06/01 12:08:49;;;;;;;3.13;1.90;;;14.20;99.90;;;;;;5049239;28;20045;-75
2022/06/01 12:11:40;;;;;;;2.90;1.80;;;14.60;99.90;;;;;;5032522;28;20053;-75
2022/06/01 12:14:28;;;;;;;2.47;1.40;;;14.80;99.90;;;;;;5012617;28;20048;-75
2022/06/01 12:17:20;;;;;;;1.75;0.93;;;15.00;99.90;;;;;;5029003;28;20041;-75
2022/06/01 12:19:51;;;;;;;5.28;1.00;;;15.10;99.90;;;;;;5022027;28;20468;-75
2022/06/01 12:28:33;;;;;;;2.63;1.15;;;15.30;99.90;;;;;;5024661;28;20041;-74
2022/06/01 12:31:33;;;;;;;3.50;2.25;;;15.30;99.90;;;;;;5029974;28;20029;-74
2022/06/01 12:34:19;;;;;;;4.45;2.40;;;15.40;99.90;;;;;;5004876;28;20053;-74
2022/06/01 12:37:32;;;;;;;4.70;2.83;;;15.40;99.90;;;;;;5032053;28;20037;-74
2022/06/01 12:40:01;;;;;;;4.97;2.90;;;15.60;99.90;;;;;;5030897;28;20156;-74
2022/06/01 12:42:34;;;;;;;5.63;3.15;;;15.70;99.90;;;;;;5014339;28;20045;-74
2022/06/01 12:45:05;;;;;;;6.03;3.90;;;15.70;99.90;;;;;;5022296;28;20087;-74
2022/06/01 12:47:32;;;;;;;5.97;4.22;;;15.70;99.90;;;;;;5020300;28;20034;-74
2022/06/01 12:50:27;;;;;;;7.88;4.70;;;15.60;99.90;;;;;;5023793;28;20026;-74
2022/06/01 12:53:40;;;;;;;6.80;4.30;;;15.60;99.90;;;;;;5031358;28;20052;-74
2022/06/01 12:56:09;;;;;;;5.78;3.80;;;15.60;99.90;;;;;;4994345;28;20534;-74
2022/06/01 12:58:36;;;;;;;6.25;3.63;;;15.60;99.90;;;;;;5027427;28;20516;-74
2022/06/01 13:01:03;;;;;;;2.38;1.85;;;15.40;99.90;;;;;;5031472;28;20080;-74
2022/06/01 13:03:32;;;;;;;2.58;1.58;;;15.30;99.90;;;;;;5031829;28;20050;-74
2022/06/01 13:06:07;;;;;;;3.30;0.73;;;15.20;99.90;;;;;;5014692;28;20041;-74
2022/06/01 13:08:37;;;;;;;0.55;0.55;;;15.10;99.90;;;;;;5031407;28;20091;-74
2022/06/01 13:11:26;;;;;;;2.83;0.73;;;15.00;99.90;;;;;;5015093;28;20490;-74
2022/06/01 13:13:52;;;;;;;0.60;0.60;;;14.80;99.90;;;;;;5031038;28;20068;-73
2022/06/01 13:16:20;;;;;;;0.75;0.70;;;14.60;99.90;;;;;;5031066;28;20048;-74
2022/06/01 13:18:46;;;;;;;0.90;0.70;;;14.70;99.90;;;;;;5013999;28;20030;-74
2022/06/01 13:21:27;;;;;;;0.73;0.73;;;14.50;99.90;;;;;;5030982;28;20095;-73
2022/06/01 13:23:57;;;;;;;0.98;0.77;;;14.40;99.90;;;;;;5031044;28;20041;-73
2022/06/01 13:26:49;;;;;;;0.70;0.70;;;14.30;99.90;;;;;;5031184;28;20038;-74
2022/06/01 13:29:27;;;;;;;0.85;0.65;;;14.30;99.90;;;;;;5014882;28;20397;-74
2022/06/01 13:31:56;;;;;;;0.80;0.70;;;14.20;99.90;;;;;;5030965;28;20049;-74
2022/06/01 13:34:31;;;;;;;0.80;0.80;;;14.00;99.90;;;;;;5031770;28;20398;-73